Time;durP1;ratioP1;P1;durP2;ratioP2;P2;SDS_P1;SDS_P2;PMS_P1;PMS_P2;Temp;Humidity;BMP_temperature;BMP_pressure;BME280_temperature;BME280_humidity;BME280_pressure;Samples;Min_cycle;Max_cycle;Signal;HPM_P1;HPM_P2
2024/02/25 00:00:18;;;;;;;4.67;2.40;;;;;;;;;;6187708;23;20628;-79
2024/02/25 00:02:45;;;;;;;5.03;2.60;;;;;;;;;;6161893;23;20519;-79
2024/02/25 00:05:13;;;;;;;3.60;2.30;;;;;;;;;;6161650;23;20167;-79
2024/02/25 00:07:42;;;;;;;4.07;2.40;;;;;;;;;;6188357;23;20168;-79
2024/02/25 00:10:11;;;;;;;7.07;3.00;;;;;;;;;;6164784;23;20166;-79
2024/02/25 00:12:39;;;;;;;6.63;3.30;;;;;;;;;;6189280;23;20244;-79
2024/02/25 00:15:06;;;;;;;6.67;3.77;;;;;;;;;;6138318;23;20245;-80
2024/02/25 00:17:33;;;;;;;4.13;2.30;;;;;;;;;;6163391;23;20166;-79
2024/02/25 00:20:04;;;;;;;5.87;3.10;;;;;;;;;;6163200;23;20171;-79
2024/02/25 00:22:32;;;;;;;5.60;2.50;;;;;;;;;;6163479;23;20213;-79
2024/02/25 00:25:03;;;;;;;3.63;2.27;;;;;;;;;;6189356;23;20162;-80
2024/02/25 00:27:31;;;;;;;5.47;3.33;;;;;;;;;;6163020;23;20175;-81
2024/02/25 00:29:59;;;;;;;4.03;2.60;;;;;;;;;;6162848;23;20169;-79
2024/02/25 00:32:27;;;;;;;6.03;2.90;;;;;;;;;;6189250;23;20173;-79
2024/02/25 00:34:55;;;;;;;5.17;2.50;;;;;;;;;;6188705;23;20209;-79
2024/02/25 00:37:23;;;;;;;4.23;2.60;;;;;;;;;;6188940;23;20241;-78
2024/02/25 00:39:50;;;;;;;4.53;2.63;;;;;;;;;;6138944;23;20201;-79
2024/02/25 00:42:17;;;;;;;4.30;2.23;;;;;;;;;;6163126;23;20201;-79
2024/02/25 00:44:48;;;;;;;4.27;2.30;;;;;;;;;;6139426;23;20637;-79
2024/02/25 00:47:16;;;;;;;5.97;2.50;;;;;;;;;;6163138;23;20245;-79
2024/02/25 00:49:44;;;;;;;4.33;2.80;;;;;;;;;;6188807;23;20170;-79
2024/02/25 00:52:12;;;;;;;4.30;2.83;;;;;;;;;;6189140;23;20166;-80
2024/02/25 00:54:44;;;;;;;6.40;2.53;;;;;;;;;;6162785;23;20191;-79
2024/02/25 00:57:13;;;;;;;4.50;3.00;;;;;;;;;;6189129;23;20197;-79
2024/02/25 00:59:42;;;;;;;4.67;3.03;;;;;;;;;;6163174;23;20241;-80
2024/02/25 01:02:13;;;;;;;5.90;2.90;;;;;;;;;;6138528;23;20166;-79
2024/02/25 01:04:42;;;;;;;6.90;3.43;;;;;;;;;;6189078;23;20166;-80
2024/02/25 01:07:09;;;;;;;5.43;3.40;;;;;;;;;;6162395;23;20253;-80
2024/02/25 01:09:37;;;;;;;8.37;4.10;;;;;;;;;;6189076;23;20162;-79
2024/02/25 01:12:05;;;;;;;7.53;4.10;;;;;;;;;;6162719;23;20186;-79
2024/02/25 01:14:33;;;;;;;5.87;3.53;;;;;;;;;;6163033;23;20193;-79
2024/02/25 01:17:01;;;;;;;5.23;3.33;;;;;;;;;;6163392;23;20197;-79
2024/02/25 01:19:56;;;;;;;6.33;3.60;;;;;;;;;;6162264;23;20162;-79
2024/02/25 01:22:28;;;;;;;6.70;3.53;;;;;;;;;;6162891;23;20193;-80
2024/02/25 01:24:56;;;;;;;6.57;3.17;;;;;;;;;;6162217;23;20170;-79
2024/02/25 01:27:25;;;;;;;4.67;3.27;;;;;;;;;;6162452;23;20177;-79
2024/02/25 01:29:53;;;;;;;6.07;3.50;;;;;;;;;;6162251;23;20631;-80
2024/02/25 01:32:22;;;;;;;6.23;3.30;;;;;;;;;;6162588;23;20681;-79
2024/02/25 01:34:50;;;;;;;4.77;3.37;;;;;;;;;;6162420;23;20190;-79
2024/02/25 01:37:17;;;;;;;5.63;3.57;;;;;;;;;;6162116;23;20198;-79
2024/02/25 01:39:46;;;;;;;6.30;3.13;;;;;;;;;;6162202;23;20174;-79
2024/02/25 01:42:19;;;;;;;4.77;3.07;;;;;;;;;;6161947;23;20170;-79
2024/02/25 01:44:55;;;;;;;4.87;3.03;;;;;;;;;;6188352;23;20190;-79
2024/02/25 01:47:23;;;;;;;4.70;3.40;;;;;;;;;;6188598;23;20165;-79
2024/02/25 01:49:51;;;;;;;4.13;3.00;;;;;;;;;;6162279;23;20178;-79
2024/02/25 01:52:18;;;;;;;6.97;3.40;;;;;;;;;;6188406;23;20167;-80
2024/02/25 01:54:48;;;;;;;5.07;3.23;;;;;;;;;;6188771;23;20261;-79
2024/02/25 01:57:19;;;;;;;4.40;3.13;;;;;;;;;;6162120;23;20203;-79
2024/02/25 01:59:47;;;;;;;6.90;3.13;;;;;;;;;;6137745;23;20163;-79
2024/02/25 02:02:15;;;;;;;6.00;3.13;;;;;;;;;;6161922;23;20251;-79
2024/02/25 02:04:42;;;;;;;7.17;3.83;;;;;;;;;;6137344;23;20589;-78
2024/02/25 02:07:15;;;;;;;7.07;3.07;;;;;;;;;;6162717;23;20166;-78
2024/02/25 02:09:42;;;;;;;4.67;3.27;;;;;;;;;;6161436;23;20170;-79
2024/02/25 02:12:13;;;;;;;9.20;3.50;;;;;;;;;;6188316;23;20155;-79
2024/02/25 02:14:43;;;;;;;4.87;3.10;;;;;;;;;;6137901;23;20684;-79
2024/02/25 02:17:11;;;;;;;3.97;3.47;;;;;;;;;;6136871;23;20198;-79
2024/02/25 02:19:44;;;;;;;3.83;3.20;;;;;;;;;;6161154;23;20220;-79
2024/02/25 02:22:12;;;;;;;5.90;3.30;;;;;;;;;;6161829;23;20170;-79
2024/02/25 02:24:39;;;;;;;4.93;3.30;;;;;;;;;;6187852;23;20166;-79
2024/02/25 02:27:08;;;;;;;7.53;3.50;;;;;;;;;;6161672;23;20166;-79
2024/02/25 02:29:36;;;;;;;3.80;3.10;;;;;;;;;;6161572;23;20169;-79
2024/02/25 02:32:04;;;;;;;7.30;3.40;;;;;;;;;;6161186;23;20170;-79
2024/02/25 02:34:35;;;;;;;5.00;3.23;;;;;;;;;;6187224;23;20217;-79
2024/02/25 02:37:04;;;;;;;5.57;3.27;;;;;;;;;;6160835;23;20171;-79
2024/02/25 02:39:32;;;;;;;5.77;3.40;;;;;;;;;;6160834;23;20170;-78
2024/02/25 02:42:00;;;;;;;5.70;3.27;;;;;;;;;;6161388;23;20177;-80
2024/02/25 02:44:28;;;;;;;4.53;3.40;;;;;;;;;;6160966;23;20190;-80
2024/02/25 02:47:08;;;;;;;6.07;3.33;;;;;;;;;;6160818;23;20169;-80
2024/02/25 02:49:42;;;;;;;4.87;3.23;;;;;;;;;;6187718;23;20158;-80
2024/02/25 02:52:12;;;;;;;4.70;3.10;;;;;;;;;;6162052;23;20161;-79
2024/02/25 02:54:39;;;;;;;6.20;3.33;;;;;;;;;;6160978;23;20265;-80
2024/02/25 02:57:07;;;;;;;5.83;3.30;;;;;;;;;;6160983;23;20173;-80
2024/02/25 02:59:41;;;;;;;5.10;3.00;;;;;;;;;;6162846;23;20242;-79
2024/02/25 03:02:19;;;;;;;4.83;2.83;;;;;;;;;;6187652;23;20154;-80
2024/02/25 03:04:55;;;;;;;6.00;3.10;;;;;;;;;;6137191;23;20253;-79
2024/02/25 03:07:27;;;;;;;4.73;3.30;;;;;;;;;;6162926;23;20166;-79
2024/02/25 03:10:01;;;;;;;4.03;3.37;;;;;;;;;;6188098;23;20146;-79
2024/02/25 03:12:29;;;;;;;4.33;3.00;;;;;;;;;;6161197;23;20197;-79
2024/02/25 03:15:01;;;;;;;5.47;3.00;;;;;;;;;;6161605;23;20189;-80
2024/02/25 03:17:29;;;;;;;4.50;2.93;;;;;;;;;;6136865;23;20217;-79
2024/02/25 03:19:56;;;;;;;4.33;2.60;;;;;;;;;;6131204;23;20167;-79
2024/02/25 03:22:26;;;;;;;4.07;2.87;;;;;;;;;;6184149;23;20640;-79
2024/02/25 03:24:56;;;;;;;3.17;2.83;;;;;;;;;;6187012;23;20200;-79
2024/02/25 03:27:26;;;;;;;4.97;3.13;;;;;;;;;;6187487;23;20234;-80
2024/02/25 03:30:04;;;;;;;4.33;2.80;;;;;;;;;;6163439;23;20185;-79
2024/02/25 03:32:32;;;;;;;6.37;3.10;;;;;;;;;;6161196;23;20170;-79
2024/02/25 03:35:01;;;;;;;5.43;2.90;;;;;;;;;;6161288;23;20186;-79
2024/02/25 03:37:29;;;;;;;5.47;2.90;;;;;;;;;;6160611;23;20221;-79
2024/02/25 03:39:57;;;;;;;4.73;2.70;;;;;;;;;;6136234;23;20170;-80
2024/02/25 03:42:28;;;;;;;4.40;2.90;;;;;;;;;;6162128;23;20159;-79
2024/02/25 03:44:56;;;;;;;5.00;2.70;;;;;;;;;;6162273;23;20206;-79
2024/02/25 03:47:25;;;;;;;4.60;3.10;;;;;;;;;;6189263;23;20186;-80
2024/02/25 03:49:53;;;;;;;4.00;3.07;;;;;;;;;;6163161;23;20162;-80
2024/02/25 03:52:24;;;;;;;5.30;2.60;;;;;;;;;;6164346;23;20158;-79
2024/02/25 03:54:52;;;;;;;3.27;2.80;;;;;;;;;;6162367;23;20194;-80
2024/02/25 03:57:19;;;;;;;2.87;2.50;;;;;;;;;;6162857;23;20170;-81
2024/02/25 03:59:50;;;;;;;3.83;2.77;;;;;;;;;;6188914;23;20194;-79
2024/02/25 04:02:32;;;;;;;6.13;3.00;;;;;;;;;;6187547;23;20249;-79
2024/02/25 04:05:00;;;;;;;3.27;2.70;;;;;;;;;;6162267;23;20177;-80
2024/02/25 04:07:28;;;;;;;4.97;2.87;;;;;;;;;;6189612;23;20245;-79
2024/02/25 04:09:59;;;;;;;5.00;2.50;;;;;;;;;;6163388;23;20245;-81
2024/02/25 04:12:27;;;;;;;4.03;2.40;;;;;;;;;;6162035;23;20166;-81
2024/02/25 04:14:54;;;;;;;4.33;2.77;;;;;;;;;;6163060;23;20205;-79
2024/02/25 04:17:26;;;;;;;3.07;2.60;;;;;;;;;;6139033;23;20318;-79
2024/02/25 04:19:54;;;;;;;2.77;2.30;;;;;;;;;;6163093;23;20171;-79
2024/02/25 04:22:22;;;;;;;4.57;2.60;;;;;;;;;;6139149;23;20201;-79
2024/02/25 04:24:52;;;;;;;2.70;2.30;;;;;;;;;;6164413;23;20163;-79
2024/02/25 04:27:19;;;;;;;4.40;2.20;;;;;;;;;;6189099;23;20172;-79
2024/02/25 04:29:51;;;;;;;3.90;2.70;;;;;;;;;;6138845;23;20170;-80
2024/02/25 04:32:23;;;;;;;5.33;2.40;;;;;;;;;;6139519;23;20605;-80
2024/02/25 04:34:52;;;;;;;5.07;2.50;;;;;;;;;;6189606;23;20189;-80
2024/02/25 04:37:21;;;;;;;4.20;2.70;;;;;;;;;;6138683;23;20236;-80
2024/02/25 04:39:51;;;;;;;3.67;2.07;;;;;;;;;;6163179;23;20162;-80
2024/02/25 04:42:22;;;;;;;3.63;2.17;;;;;;;;;;6163167;23;20167;-79
2024/02/25 04:44:50;;;;;;;3.33;2.07;;;;;;;;;;6138781;23;20198;-80
2024/02/25 04:47:26;;;;;;;4.23;2.27;;;;;;;;;;6164457;23;20139;-80
2024/02/25 04:49:56;;;;;;;4.97;2.70;;;;;;;;;;6162981;23;20216;-81
2024/02/25 04:52:25;;;;;;;4.20;2.23;;;;;;;;;;6162012;23;20166;-79
2024/02/25 04:54:56;;;;;;;4.13;2.30;;;;;;;;;;6188790;23;20213;-79
2024/02/25 04:57:24;;;;;;;4.10;2.20;;;;;;;;;;6188680;23;20155;-79
2024/02/25 04:59:53;;;;;;;2.47;2.03;;;;;;;;;;6161006;23;20170;-80
2024/02/25 05:02:21;;;;;;;3.50;2.43;;;;;;;;;;6162117;23;20242;-79
2024/02/25 05:04:51;;;;;;;3.47;2.53;;;;;;;;;;6187835;23;20154;-79
2024/02/25 05:07:21;;;;;;;2.50;2.30;;;;;;;;;;6162842;23;20170;-80
2024/02/25 05:09:53;;;;;;;2.67;2.30;;;;;;;;;;6163436;23;20170;-80
2024/02/25 05:12:22;;;;;;;3.40;2.40;;;;;;;;;;6162919;23;20241;-80
2024/02/25 05:14:51;;;;;;;4.47;2.50;;;;;;;;;;6137715;23;20213;-80
2024/02/25 05:17:23;;;;;;;3.63;2.13;;;;;;;;;;6188422;23;20190;-80
2024/02/25 05:19:57;;;;;;;5.63;2.40;;;;;;;;;;6163381;23;20217;-80
2024/02/25 05:22:25;;;;;;;4.47;2.30;;;;;;;;;;6163185;23;20177;-80
2024/02/25 05:24:52;;;;;;;2.73;1.90;;;;;;;;;;6162710;23;20168;-80
2024/02/25 05:27:28;;;;;;;3.80;2.00;;;;;;;;;;6162846;23;20161;-80
2024/02/25 05:29:57;;;;;;;3.47;2.00;;;;;;;;;;6139868;23;20245;-80
2024/02/25 05:32:27;;;;;;;2.27;2.07;;;;;;;;;;6163467;23;20174;-80
2024/02/25 05:34:54;;;;;;;4.07;2.30;;;;;;;;;;6162398;23;20624;-80
2024/02/25 05:37:22;;;;;;;5.60;2.47;;;;;;;;;;6162259;23;20194;-80
2024/02/25 05:39:52;;;;;;;3.03;2.50;;;;;;;;;;6162815;23;20166;-79
2024/02/25 05:42:20;;;;;;;2.40;1.90;;;;;;;;;;6188445;23;20245;-80
2024/02/25 05:44:51;;;;;;;3.83;2.63;;;;;;;;;;6161346;23;20209;-79
2024/02/25 05:47:20;;;;;;;4.03;2.30;;;;;;;;;;6161555;23;20163;-79
2024/02/25 05:49:48;;;;;;;2.47;2.20;;;;;;;;;;6113774;23;20174;-80
2024/02/25 05:52:16;;;;;;;3.10;2.50;;;;;;;;;;6137672;23;20170;-79
2024/02/25 05:54:46;;;;;;;3.37;2.20;;;;;;;;;;6161940;23;20186;-80
2024/02/25 05:57:19;;;;;;;4.37;2.60;;;;;;;;;;6162246;23;20198;-80
2024/02/25 05:59:48;;;;;;;3.13;2.50;;;;;;;;;;6162780;23;20190;-80
2024/02/25 06:02:16;;;;;;;4.90;2.33;;;;;;;;;;6162852;23;20238;-80
2024/02/25 06:04:55;;;;;;;3.20;2.23;;;;;;;;;;6164911;23;20147;-79
2024/02/25 06:07:23;;;;;;;4.20;2.60;;;;;;;;;;6162924;23;20184;-81
2024/02/25 06:10:00;;;;;;;3.83;2.40;;;;;;;;;;6161947;23;20224;-80
2024/02/25 06:12:38;;;;;;;3.13;2.70;;;;;;;;;;6162391;23;20242;-79
2024/02/25 06:15:11;;;;;;;2.50;2.30;;;;;;;;;;6162274;23;20186;-79
2024/02/25 06:17:41;;;;;;;4.80;2.40;;;;;;;;;;6161825;23;20186;-80
2024/02/25 06:20:09;;;;;;;3.30;2.53;;;;;;;;;;6188503;23;20166;-79
2024/02/25 06:22:38;;;;;;;3.03;2.17;;;;;;;;;;6162225;23;20189;-80
2024/02/25 06:25:07;;;;;;;2.97;2.40;;;;;;;;;;6162782;23;20166;-80
2024/02/25 06:27:39;;;;;;;5.10;2.27;;;;;;;;;;6161576;23;20177;-80
2024/02/25 06:30:10;;;;;;;3.60;2.07;;;;;;;;;;6163095;23;20185;-79
2024/02/25 06:32:38;;;;;;;2.73;2.20;;;;;;;;;;6162017;23;20253;-79
2024/02/25 06:35:06;;;;;;;3.50;2.20;;;;;;;;;;6188458;23;20625;-80
2024/02/25 06:37:37;;;;;;;3.07;2.03;;;;;;;;;;6162408;23;20311;-80
2024/02/25 06:40:05;;;;;;;3.47;2.37;;;;;;;;;;6161365;23;20248;-80
2024/02/25 06:42:39;;;;;;;2.50;2.13;;;;;;;;;;6161920;23;20170;-80
2024/02/25 06:45:07;;;;;;;4.73;2.37;;;;;;;;;;6162251;23;20198;-80
2024/02/25 06:47:34;;;;;;;3.83;2.40;;;;;;;;;;6162623;23;20212;-80
2024/02/25 06:50:02;;;;;;;3.27;2.30;;;;;;;;;;6162132;23;20174;-82
2024/02/25 06:52:31;;;;;;;2.00;1.90;;;;;;;;;;6188828;23;20165;-80
2024/02/25 06:55:01;;;;;;;2.40;2.10;;;;;;;;;;6163353;23;20189;-80
2024/02/25 06:57:31;;;;;;;3.40;2.20;;;;;;;;;;6162782;23;20163;-80
2024/02/25 07:00:00;;;;;;;2.40;2.20;;;;;;;;;;6161129;23;20166;-79
2024/02/25 07:02:28;;;;;;;3.30;2.00;;;;;;;;;;6161244;23;20253;-79
2024/02/25 07:04:57;;;;;;;3.97;1.90;;;;;;;;;;6188820;23;20162;-80
2024/02/25 07:07:25;;;;;;;2.13;1.70;;;;;;;;;;6162574;23;20166;-80
2024/02/25 07:09:57;;;;;;;2.73;2.10;;;;;;;;;;6161664;23;20253;-80
2024/02/25 07:12:34;;;;;;;3.33;1.87;;;;;;;;;;6161801;23;20166;-80
2024/02/25 07:15:04;;;;;;;4.13;3.10;;;;;;;;;;6162227;23;20189;-79
2024/02/25 07:17:32;;;;;;;3.00;2.03;;;;;;;;;;6137529;23;20190;-80
2024/02/25 07:19:59;;;;;;;3.40;2.10;;;;;;;;;;6161316;23;20177;-80
2024/02/25 07:22:28;;;;;;;2.40;1.70;;;;;;;;;;6188435;23;20166;-81
2024/02/25 07:24:56;;;;;;;2.27;1.67;;;;;;;;;;6138053;23;20190;-79
2024/02/25 07:27:23;;;;;;;2.23;1.90;;;;;;;;;;6162790;23;20163;-79
2024/02/25 07:29:51;;;;;;;2.40;1.90;;;;;;;;;;6162634;23;20167;-80
2024/02/25 07:32:23;;;;;;;2.30;1.60;;;;;;;;;;6163952;23;20163;-79
2024/02/25 07:34:53;;;;;;;1.90;1.60;;;;;;;;;;6162697;23;20193;-79
2024/02/25 07:37:24;;;;;;;2.40;1.87;;;;;;;;;;6162730;23;20257;-80
2024/02/25 07:39:55;;;;;;;2.97;1.90;;;;;;;;;;6164065;23;20162;-82
2024/02/25 07:42:23;;;;;;;2.60;2.10;;;;;;;;;;6163769;23;20225;-80
2024/02/25 07:44:50;;;;;;;3.27;2.50;;;;;;;;;;6139703;23;20197;-79
2024/02/25 07:47:17;;;;;;;3.57;2.87;;;;;;;;;;6139836;23;20166;-80
2024/02/25 07:49:46;;;;;;;3.30;2.83;;;;;;;;;;6139403;23;20178;-80
2024/02/25 07:52:14;;;;;;;4.43;3.10;;;;;;;;;;6139375;23;20170;-79
2024/02/25 07:54:44;;;;;;;4.30;3.20;;;;;;;;;;6139324;23;20605;-80
2024/02/25 07:57:14;;;;;;;4.00;3.20;;;;;;;;;;6162544;23;20190;-80
2024/02/25 07:59:42;;;;;;;4.27;3.17;;;;;;;;;;6162584;23;20185;-79
2024/02/25 08:02:10;;;;;;;3.77;3.23;;;;;;;;;;6162459;23;20166;-79
2024/02/25 08:04:39;;;;;;;3.30;3.00;;;;;;;;;;6163034;23;20175;-79
2024/02/25 08:07:06;;;;;;;4.03;2.93;;;;;;;;;;6162508;23;20170;-79
2024/02/25 08:09:35;;;;;;;3.80;3.50;;;;;;;;;;6163224;23;20171;-80
2024/02/25 08:12:03;;;;;;;4.03;3.63;;;;;;;;;;6189163;23;20220;-79
2024/02/25 08:14:31;;;;;;;4.60;4.17;;;;;;;;;;6138698;23;20257;-80
2024/02/25 08:16:59;;;;;;;4.90;3.87;;;;;;;;;;6144447;23;20194;-80
2024/02/25 08:19:31;;;;;;;6.67;4.77;;;;;;;;;;6169005;23;20162;-80
2024/02/25 08:22:22;;;;;;;6.80;4.37;;;;;;;;;;6140478;23;20601;-80
2024/02/25 08:24:50;;;;;;;4.63;4.13;;;;;;;;;;6189094;23;20170;-80
2024/02/25 08:27:17;;;;;;;5.40;4.33;;;;;;;;;;6140633;23;20175;-80
2024/02/25 08:29:45;;;;;;;5.33;4.17;;;;;;;;;;6140653;23;20178;-80
2024/02/25 08:32:13;;;;;;;6.90;5.20;;;;;;;;;;6166165;23;20170;-80
2024/02/25 08:34:41;;;;;;;5.33;4.83;;;;;;;;;;6167674;23;20189;-81
2024/02/25 08:37:11;;;;;;;6.77;4.77;;;;;;;;;;6166462;23;20186;-80
2024/02/25 08:39:39;;;;;;;7.23;4.70;;;;;;;;;;6166091;23;20163;-80
2024/02/25 08:42:07;;;;;;;5.80;5.30;;;;;;;;;;6166241;23;20215;-80
2024/02/25 08:44:35;;;;;;;6.00;5.07;;;;;;;;;;6140409;23;20210;-80
2024/02/25 08:47:03;;;;;;;6.13;5.30;;;;;;;;;;6191428;23;20241;-80
2024/02/25 08:49:30;;;;;;;5.30;4.80;;;;;;;;;;6164924;23;20174;-80
2024/02/25 08:51:59;;;;;;;5.53;4.90;;;;;;;;;;6165289;23;20241;-79
2024/02/25 08:54:33;;;;;;;6.47;4.90;;;;;;;;;;6166310;23;20234;-79
2024/02/25 08:57:01;;;;;;;5.50;5.00;;;;;;;;;;6140843;23;20240;-80
2024/02/25 08:59:30;;;;;;;6.43;5.80;;;;;;;;;;6141098;23;20228;-80
2024/02/25 09:01:59;;;;;;;6.60;5.10;;;;;;;;;;6140754;23;20221;-80
2024/02/25 09:04:28;;;;;;;7.97;5.27;;;;;;;;;;6164899;23;20197;-80
2024/02/25 09:06:59;;;;;;;6.20;5.10;;;;;;;;;;6164985;23;20618;-79
2024/02/25 09:09:27;;;;;;;7.40;6.60;;;;;;;;;;6191448;23;20162;-80
2024/02/25 09:11:57;;;;;;;7.00;6.30;;;;;;;;;;6165226;23;20166;-80
2024/02/25 09:14:24;;;;;;;6.40;5.80;;;;;;;;;;6164439;23;20171;-80
2024/02/25 09:16:52;;;;;;;7.80;5.97;;;;;;;;;;6164172;23;20201;-80
2024/02/25 09:19:27;;;;;;;7.90;7.20;;;;;;;;;;6163975;23;20252;-80
2024/02/25 09:21:56;;;;;;;5.40;4.47;;;;;;;;;;6165103;23;20175;-79
2024/02/25 09:24:26;;;;;;;6.93;5.60;;;;;;;;;;6140626;23;20166;-80
2024/02/25 09:26:54;;;;;;;7.20;6.17;;;;;;;;;;6165088;23;20213;-81
2024/02/25 09:29:21;;;;;;;6.40;5.10;;;;;;;;;;6140020;23;20166;-80
2024/02/25 09:32:00;;;;;;;6.00;5.03;;;;;;;;;;6165053;23;20241;-80
2024/02/25 09:34:31;;;;;;;6.10;5.50;;;;;;;;;;6189950;23;20162;-80
2024/02/25 09:37:02;;;;;;;6.23;5.63;;;;;;;;;;6164142;23;20200;-80
2024/02/25 09:39:30;;;;;;;6.00;5.30;;;;;;;;;;6163925;23;20169;-80
2024/02/25 09:41:57;;;;;;;6.10;5.53;;;;;;;;;;6163251;23;20175;-80
2024/02/25 09:44:28;;;;;;;6.20;5.57;;;;;;;;;;6163756;23;20213;-80
2024/02/25 09:46:59;;;;;;;6.07;5.07;;;;;;;;;;6164513;23;20166;-80
2024/02/25 09:49:31;;;;;;;7.07;4.43;;;;;;;;;;6164662;23;20170;-80
2024/02/25 09:52:00;;;;;;;4.90;4.40;;;;;;;;;;6164680;23;20173;-81
2024/02/25 09:54:31;;;;;;;4.80;4.30;;;;;;;;;;6141747;23;20157;-80
2024/02/25 09:56:59;;;;;;;5.37;4.70;;;;;;;;;;6164351;23;20286;-81
2024/02/25 09:59:27;;;;;;;6.00;4.13;;;;;;;;;;6190226;23;20166;-80
2024/02/25 10:01:54;;;;;;;5.50;4.30;;;;;;;;;;6139071;23;20249;-81
2024/02/25 10:04:25;;;;;;;6.60;4.30;;;;;;;;;;6190907;23;20609;-80
2024/02/25 10:06:54;;;;;;;6.27;4.67;;;;;;;;;;6163975;23;20169;-81
2024/02/25 10:09:30;;;;;;;6.83;4.63;;;;;;;;;;6165014;23;20182;-80
2024/02/25 10:12:08;;;;;;;5.37;4.27;;;;;;;;;;6140388;23;20184;-80
2024/02/25 10:14:38;;;;;;;5.93;4.23;;;;;;;;;;6165411;23;20176;-80
2024/02/25 10:17:06;;;;;;;5.03;3.83;;;;;;;;;;6165426;23;20195;-81
2024/02/25 10:19:35;;;;;;;4.90;3.70;;;;;;;;;;6141955;23;20170;-80
2024/02/25 10:22:09;;;;;;;5.00;3.67;;;;;;;;;;6142297;23;20190;-80
2024/02/25 10:24:44;;;;;;;4.80;4.00;;;;;;;;;;6163711;23;20174;-80
2024/02/25 10:27:13;;;;;;;4.33;3.70;;;;;;;;;;6186883;23;20150;-79
2024/02/25 10:29:53;;;;;;;5.13;3.67;;;;;;;;;;6159460;23;20174;-79
2024/02/25 10:32:25;;;;;;;5.60;3.80;;;;;;;;;;6185656;23;20171;-79
2024/02/25 10:34:57;;;;;;;3.93;3.50;;;;;;;;;;6159540;23;20167;-79
2024/02/25 10:37:27;;;;;;;4.03;3.23;;;;;;;;;;6160388;23;20186;-79
2024/02/25 10:40:04;;;;;;;3.03;2.80;;;;;;;;;;6161003;23;20231;-79
2024/02/25 10:42:38;;;;;;;3.47;2.80;;;;;;;;;;6187050;23;20151;-79
2024/02/25 10:45:08;;;;;;;4.10;3.30;;;;;;;;;;6186607;23;20186;-79
2024/02/25 10:47:36;;;;;;;3.90;2.90;;;;;;;;;;6160163;23;20237;-79
2024/02/25 10:50:05;;;;;;;3.07;2.70;;;;;;;;;;6186220;23;20237;-78
2024/02/25 10:52:32;;;;;;;4.60;2.80;;;;;;;;;;6188061;23;20170;-79
2024/02/25 10:55:01;;;;;;;4.57;2.70;;;;;;;;;;6188380;23;20164;-80
2024/02/25 10:57:28;;;;;;;4.27;2.77;;;;;;;;;;6163476;23;20233;-80
2024/02/25 10:59:58;;;;;;;3.73;2.60;;;;;;;;;;6193357;23;20166;-80
2024/02/25 11:02:28;;;;;;;4.50;3.00;;;;;;;;;;6190818;23;20177;-79
2024/02/25 11:04:58;;;;;;;3.80;2.43;;;;;;;;;;6187531;23;20166;-80
2024/02/25 11:07:28;;;;;;;3.97;2.57;;;;;;;;;;6162224;23;20216;-79
2024/02/25 11:09:56;;;;;;;5.77;3.03;;;;;;;;;;6161526;23;20184;-79
2024/02/25 11:12:24;;;;;;;4.33;2.80;;;;;;;;;;6187827;23;20191;-79
2024/02/25 11:15:07;;;;;;;4.50;2.67;;;;;;;;;;6160768;23;20175;-80
2024/02/25 11:17:39;;;;;;;3.03;2.40;;;;;;;;;;6162644;23;20191;-81
2024/02/25 11:20:18;;;;;;;3.60;2.60;;;;;;;;;;6189840;23;20238;-81
2024/02/25 11:22:49;;;;;;;3.37;2.47;;;;;;;;;;6140632;23;20291;-82
2024/02/25 11:25:27;;;;;;;5.20;2.50;;;;;;;;;;6191553;23;20172;-81
2024/02/25 11:28:12;;;;;;;4.33;2.60;;;;;;;;;;6190722;23;20167;-81
2024/02/25 11:30:52;;;;;;;4.47;2.80;;;;;;;;;;6168014;23;20145;-81
2024/02/25 11:33:22;;;;;;;3.83;2.40;;;;;;;;;;6166738;23;20166;-81
2024/02/25 11:35:57;;;;;;;4.27;2.40;;;;;;;;;;6167389;23;20176;-81
2024/02/25 11:38:31;;;;;;;5.67;2.83;;;;;;;;;;6194294;23;20153;-81
2024/02/25 11:41:03;;;;;;;3.80;2.33;;;;;;;;;;6167804;23;20186;-81
2024/02/25 11:43:33;;;;;;;4.03;2.50;;;;;;;;;;6193356;23;20643;-81
2024/02/25 11:46:07;;;;;;;5.33;2.77;;;;;;;;;;6164951;23;20537;-81
2024/02/25 11:48:36;;;;;;;4.10;2.30;;;;;;;;;;6142438;23;20163;-81
2024/02/25 11:51:10;;;;;;;2.93;2.37;;;;;;;;;;6192695;23;20178;-80
2024/02/25 11:53:40;;;;;;;5.40;3.73;;;;;;;;;;6165256;23;20194;-81
2024/02/25 11:56:08;;;;;;;6.03;4.60;;;;;;;;;;6141407;23;20610;-81
2024/02/25 11:58:40;;;;;;;6.50;5.40;;;;;;;;;;6190308;23;20620;-81
2024/02/25 12:01:17;;;;;;;9.03;5.70;;;;;;;;;;6171488;23;20167;-82
2024/02/25 12:03:57;;;;;;;6.63;5.40;;;;;;;;;;6174575;23;20616;-82
2024/02/25 12:06:40;;;;;;;4.70;4.03;;;;;;;;;;6177624;23;20169;-82
2024/02/25 12:13:59;;;;;;;6.57;4.80;;;;;;;;;;6196468;23;20183;-83
2024/02/25 12:25:18;;;;;;;1.43;0.73;;;;;;;;;;6053224;23;20149;-82
2024/02/25 12:28:28;;;;;;;9.70;4.90;;;;;;;;;;6052851;23;20617;-82
2024/02/25 12:35:29;;;;;;;4.10;3.37;;;;;;;;;;5996115;24;20162;-81
2024/02/25 12:37:59;;;;;;;3.93;2.30;;;;;;;;;;5990802;24;20183;-82
2024/02/25 12:40:27;;;;;;;3.47;2.50;;;;;;;;;;5983266;24;20179;-82
2024/02/25 12:42:57;;;;;;;2.97;1.50;;;;;;;;;;5983486;24;20250;-82
2024/02/25 12:45:28;;;;;;;4.37;2.60;;;;;;;;;;5982351;24;20263;-83
2024/02/25 12:47:55;;;;;;;4.27;2.87;;;;;;;;;;5982781;24;20178;-83
2024/02/25 12:50:23;;;;;;;6.37;3.87;;;;;;;;;;5982504;24;20175;-83
2024/02/25 12:52:52;;;;;;;2.77;1.97;;;;;;;;;;5983404;24;20175;-82
2024/02/25 12:55:19;;;;;;;3.97;2.70;;;;;;;;;;6092698;23;20616;-82
2024/02/25 12:57:46;;;;;;;2.80;1.80;;;;;;;;;;6101721;23;20199;-82
2024/02/25 13:00:15;;;;;;;2.03;1.30;;;;;;;;;;6102487;23;20170;-82
2024/02/25 13:02:43;;;;;;;10.80;7.47;;;;;;;;;;6129476;23;20168;-82
2024/02/25 13:05:13;;;;;;;1.70;1.00;;;;;;;;;;6101256;23;20172;-82
2024/02/25 13:07:40;;;;;;;1.60;1.20;;;;;;;;;;6111329;23;20179;-81
2024/02/25 13:10:10;;;;;;;2.13;1.03;;;;;;;;;;6160946;23;20338;-82
2024/02/25 13:12:39;;;;;;;1.50;1.03;;;;;;;;;;6161425;23;20166;-82
2024/02/25 13:15:07;;;;;;;1.50;1.20;;;;;;;;;;6160757;23;20221;-82
2024/02/25 13:17:37;;;;;;;3.03;1.20;;;;;;;;;;6163378;23;20210;-81
2024/02/25 13:20:14;;;;;;;2.10;1.13;;;;;;;;;;6163767;23;20158;-81
2024/02/25 13:22:48;;;;;;;1.53;0.93;;;;;;;;;;6171005;23;20166;-81
2024/02/25 13:25:18;;;;;;;1.77;1.20;;;;;;;;;;6193186;23;20166;-82
2024/02/25 13:27:46;;;;;;;1.30;1.00;;;;;;;;;;6167987;23;20170;-81
2024/02/25 13:30:13;;;;;;;1.63;0.90;;;;;;;;;;6167209;23;20229;-81
2024/02/25 13:32:41;;;;;;;1.53;1.10;;;;;;;;;;6167686;23;20173;-81
2024/02/25 13:35:17;;;;;;;2.10;0.70;;;;;;;;;;6170632;23;20166;-81
2024/02/25 13:38:20;;;;;;;2.20;0.80;;;;;;;;;;6196092;23;20189;-81
2024/02/25 13:40:52;;;;;;;1.83;1.00;;;;;;;;;;6170548;23;20162;-81
2024/02/25 13:43:22;;;;;;;2.33;0.80;;;;;;;;;;6196856;23;20155;-81
2024/02/25 13:45:52;;;;;;;2.57;1.03;;;;;;;;;;6164547;23;20606;-81
2024/02/25 13:48:22;;;;;;;1.77;1.10;;;;;;;;;;6165095;23;20147;-81
2024/02/25 13:51:04;;;;;;;1.90;1.30;;;;;;;;;;6174902;23;20170;-82
2024/02/25 13:53:40;;;;;;;2.20;1.20;;;;;;;;;;6146210;23;20203;-81
2024/02/25 14:00:26;;;;;;;3.93;1.07;;;;;;;;;;6167171;23;20147;-80
2024/02/25 14:02:56;;;;;;;2.10;0.90;;;;;;;;;;6162067;23;20163;-80
2024/02/25 14:05:25;;;;;;;2.10;1.00;;;;;;;;;;6162041;23;20684;-80
2024/02/25 14:07:54;;;;;;;2.07;1.20;;;;;;;;;;6137663;23;20163;-80
2024/02/25 14:10:27;;;;;;;1.67;1.00;;;;;;;;;;6162112;23;20194;-80
2024/02/25 14:12:58;;;;;;;1.93;0.90;;;;;;;;;;6162789;23;20167;-80
2024/02/25 14:15:26;;;;;;;1.67;0.80;;;;;;;;;;6163462;23;20183;-80
2024/02/25 14:17:57;;;;;;;2.13;1.03;;;;;;;;;;6163412;23;20183;-80
2024/02/25 14:20:34;;;;;;;1.97;0.90;;;;;;;;;;6137951;23;20169;-80
2024/02/25 14:23:07;;;;;;;1.07;0.77;;;;;;;;;;6162387;23;20171;-80
2024/02/25 14:25:35;;;;;;;2.23;1.10;;;;;;;;;;6162382;23;20194;-80
2024/02/25 14:28:06;;;;;;;1.77;0.90;;;;;;;;;;6163631;23;20230;-80
2024/02/25 14:30:35;;;;;;;1.87;0.80;;;;;;;;;;6164910;23;20171;-81
2024/02/25 14:33:24;;;;;;;2.77;1.00;;;;;;;;;;6147682;23;20167;-81
2024/02/25 14:36:17;;;;;;;1.07;0.80;;;;;;;;;;6131292;23;20218;-81
2024/02/25 14:39:02;;;;;;;2.57;0.90;;;;;;;;;;6148909;23;20183;-82
2024/02/25 14:41:36;;;;;;;2.40;0.90;;;;;;;;;;6146922;23;20159;-81
2024/02/25 14:44:27;;;;;;;2.87;1.00;;;;;;;;;;6172793;23;20255;-81
2024/02/25 14:47:05;;;;;;;2.33;1.00;;;;;;;;;;6177841;23;20170;-81
2024/02/25 14:49:46;;;;;;;2.37;1.37;;;;;;;;;;6176053;23;20218;-81
2024/02/25 14:52:22;;;;;;;3.23;1.33;;;;;;;;;;6200138;23;20150;-81
2024/02/25 14:55:08;;;;;;;1.43;0.90;;;;;;;;;;6186901;23;20193;-81
2024/02/25 14:57:51;;;;;;;1.47;0.80;;;;;;;;;;6199228;23;20617;-81
2024/02/25 15:00:21;;;;;;;0.80;0.60;;;;;;;;;;6176395;23;20169;-81
2024/02/25 15:02:52;;;;;;;2.60;1.30;;;;;;;;;;6123351;23;20222;-81
2024/02/25 15:06:00;;;;;;;2.83;1.03;;;;;;;;;;6166556;23;20177;-81
2024/02/25 15:08:46;;;;;;;1.70;0.97;;;;;;;;;;6170591;23;20265;-81
2024/02/25 15:11:35;;;;;;;2.13;0.90;;;;;;;;;;6151510;23;20167;-81
2024/02/25 15:14:09;;;;;;;1.90;0.90;;;;;;;;;;6162388;23;20148;-80
2024/02/25 15:16:44;;;;;;;1.30;0.90;;;;;;;;;;6164378;23;20213;-81
2024/02/25 15:19:20;;;;;;;1.07;0.90;;;;;;;;;;6170482;23;20174;-82
2024/02/25 15:22:47;;;;;;;3.17;1.10;;;;;;;;;;6137638;23;20198;-82
2024/02/25 15:25:35;;;;;;;2.13;1.10;;;;;;;;;;6171834;23;20167;-81
2024/02/25 15:28:08;;;;;;;2.10;1.30;;;;;;;;;;6147072;23;20160;-81